.
WxDataArchive / Data Records for 2009-08-19
2009-08-18 August 2009 2009-08-20

Data Records for Wednesday, 19 August 2009

Time	Temp	Chill	HIndex	Humid	Dewpt	 Wind 	HiWind	WindDir	Rain 	Barom 
-----	----	-----	------	-----	-----	------	------	-------	-----	----- 
00:00	68.6	68.6	68.6	93	66.5	0	0	---	0.00	29.981 
00:05	68.6	68.6	68.6	93	66.5	0	0	---	0.00	29.981 
00:10	68.6	68.6	68.6	93	66.5	0	0	---	0.00	29.981 
00:15	68.4	68.4	68.4	93	66.3	0	0	---	0.00	29.982 
00:20	68.4	68.4	68.4	93	66.3	0	0	---	0.00	29.982 
00:25	68.4	68.4	68.4	93	66.3	0	0	---	0.00	29.982 
00:30	68.4	68.4	68.4	93	66.3	0	0	---	0.00	29.982 
00:35	68.4	68.4	68.4	93	66.3	0	0	---	0.00	29.982 
00:40	68.6	68.6	68.6	93	66.5	0	0	---	0.00	29.982 
00:45	68.8	68.8	68.8	93	66.7	0	0	---	0.00	29.981 
00:50	68.8	68.8	68.8	93	66.7	0	0	---	0.00	29.981 
00:55	68.8	68.8	68.8	93	66.7	0	0	---	0.00	29.981 
01:00	68.8	68.8	68.8	93	66.7	0	0	---	0.00	29.981 
01:05	68.8	68.8	68.8	93	66.7	0	0	---	0.00	29.981 
01:10	68.8	68.8	68.8	93	66.7	0	0	---	0.00	29.981 
01:15	68.8	68.8	68.8	93	66.7	0	0	---	0.00	29.985 
01:20	68.8	68.8	68.8	93	66.7	0	0	---	0.00	29.985 
01:25	68.8	68.8	68.8	93	66.7	0	0	---	0.00	29.985 
01:30	68.8	68.8	68.8	93	66.7	0	0	---	0.00	29.994 
01:35	68.8	68.8	68.8	93	66.7	0	0	---	0.00	29.994 
01:40	68.8	68.8	68.8	92	66.4	0	0	---	0.00	29.994 
01:45	68.8	68.8	68.8	92	66.4	0	0	---	0.00	29.998 
01:50	68.8	68.8	68.8	92	66.4	0	0	---	0.00	29.998 
01:55	68.6	68.6	68.6	92	66.2	0	0	---	0.00	29.998 
02:00	68.6	68.6	68.6	92	66.2	0	0	---	0.00	29.996 
02:05	68.4	68.4	68.4	92	66.0	0	0	---	0.00	29.996 
02:10	68.3	68.3	68.3	92	65.9	0	0	---	0.00	29.996 
02:15	68.3	68.3	68.3	92	65.9	0	0	---	0.00	29.994 
02:20	68.1	68.1	68.1	92	65.7	0	0	---	0.00	29.994 
02:25	67.9	67.9	67.9	92	65.5	0	0	---	0.00	29.994 
02:30	67.8	67.8	67.8	92	65.4	0	0	---	0.00	29.991 
02:35	67.8	67.8	67.8	92	65.4	0	0	---	0.00	29.991 
02:40	67.6	67.6	67.6	92	65.2	0	0	---	0.00	29.991 
02:45	67.6	67.6	67.6	93	65.5	0	0	---	0.00	29.986 
02:50	67.6	67.6	67.6	93	65.5	0	0	---	0.00	29.986 
02:55	67.4	67.4	67.4	93	65.3	0	0	---	0.00	29.986 
03:00	67.3	67.3	67.3	93	65.2	0	0	---	0.00	29.983 
03:05	67.1	67.1	67.1	93	65.0	0	0	---	0.00	29.983 
03:10	67.1	67.1	67.1	93	65.0	0	0	---	0.00	29.983 
03:15	66.9	66.9	66.9	93	64.8	0	0	---	0.00	29.980 
03:20	66.8	66.8	66.8	93	64.7	0	0	---	0.00	29.980 
03:25	66.8	66.8	66.8	93	64.7	0	0	---	0.00	29.980 
03:30	66.6	66.6	66.6	93	64.5	0	0	---	0.00	29.979 
03:35	66.4	66.4	66.4	93	64.3	0	0	---	0.00	29.979 
03:40	66.4	66.4	66.4	93	64.3	0	0	---	0.00	29.979 
03:45	66.3	66.3	66.3	93	64.2	0	0	---	0.00	29.971 
03:50	66.3	66.3	66.3	93	64.2	0	0	---	0.00	29.971 
03:55	66.1	66.1	66.1	93	64.0	0	0	---	0.00	29.971 
04:00	66.1	66.1	66.1	93	64.0	0	0	---	0.00	29.980 
04:05	66.0	66.0	66.0	93	63.9	0	0	---	0.00	29.980 
04:10	65.8	65.8	65.8	93	63.7	0	0	---	0.00	29.980 
04:15	65.6	65.6	65.6	93	63.5	0	0	---	0.00	29.974 
04:20	65.3	65.3	65.3	93	63.2	0	0	---	0.00	29.974 
04:25	65.2	65.2	65.2	93	63.1	0	0	---	0.00	29.974 
04:30	65.0	65.0	65.0	93	62.9	0	0	---	0.00	29.968 
04:35	65.0	65.0	65.0	93	62.9	0	0	---	0.00	29.968 
04:40	65.0	65.0	65.0	93	62.9	0	0	---	0.00	29.968 
04:45	64.8	64.8	64.8	93	62.7	0	0	---	0.00	29.978 
04:50	64.7	64.7	64.7	94	62.9	0	0	---	0.00	29.978 
04:55	64.7	64.7	64.7	94	62.9	0	0	---	0.00	29.978 
05:00	64.5	64.5	64.5	94	62.7	0	0	---	0.00	29.968 
05:05	64.5	64.5	64.5	94	62.7	0	0	---	0.00	29.968 
05:10	64.5	64.5	64.5	94	62.7	0	0	---	0.00	29.968 
05:15	64.7	64.7	64.7	94	62.9	0	0	---	0.00	29.970 
05:20	64.7	64.7	64.7	94	62.9	0	0	---	0.00	29.970 
05:25	64.7	64.7	64.7	94	62.9	0	0	---	0.00	29.970 
05:30	64.7	64.7	64.7	94	62.9	0	0	---	0.00	29.970 
05:35	64.5	64.5	64.5	94	62.7	0	0	---	0.00	29.970 
05:40	64.5	64.5	64.5	95	63.0	0	0	---	0.00	29.970 
05:45	64.7	64.7	64.7	95	63.2	0	0	---	0.00	29.969 
05:50	64.7	64.7	64.7	95	63.2	0	0	---	0.00	29.969 
05:55	64.8	64.8	64.8	95	63.3	0	0	---	0.00	29.969 
06:00	64.8	64.8	64.8	95	63.3	0	0	---	0.00	29.978 
06:05	64.8	64.8	64.8	95	63.3	0	0	---	0.00	29.978 
06:10	64.8	64.8	64.8	95	63.3	0	0	---	0.00	29.978 
06:15	64.8	64.8	64.8	95	63.3	0	1	270	0.00	29.954 
06:20	64.8	64.8	64.8	95	63.3	0	0	---	0.00	29.954 
06:25	64.8	64.8	64.8	95	63.3	0	0	---	0.00	29.954 
06:30	64.8	64.8	64.8	95	63.3	0	0	---	0.00	29.965 
06:35	64.8	64.8	64.8	95	63.3	0	0	---	0.00	29.965 
06:40	64.8	64.8	64.8	95	63.3	0	0	---	0.00	29.965 
06:45	64.8	64.8	64.8	95	63.3	0	0	---	0.00	29.968 
06:50	64.8	64.8	64.8	95	63.3	0	0	---	0.00	29.968 
06:55	65.0	65.0	65.0	95	63.5	0	0	---	0.00	29.968 
07:00	65.0	65.0	65.0	95	63.5	0	0	---	0.00	29.971 
07:05	65.0	65.0	65.0	95	63.5	0	0	---	0.00	29.971 
07:10	65.0	65.0	65.0	95	63.5	0	0	---	0.00	29.971 
07:15	65.0	65.0	65.0	95	63.5	0	0	---	0.00	29.982 
07:20	65.0	65.0	65.0	95	63.5	0	0	---	0.00	29.982 
07:25	65.0	65.0	65.0	96	63.8	0	0	---	0.00	29.982 
07:30	65.0	65.0	65.0	95	63.5	0	0	---	0.00	29.984 
07:35	65.2	65.2	65.2	96	64.0	0	0	---	0.00	29.984 
07:40	65.3	65.3	65.3	96	64.1	0	0	---	0.00	29.984 
07:45	65.5	65.5	65.5	96	64.3	0	0	---	0.00	29.986 
07:50	65.5	65.5	65.5	96	64.3	0	0	---	0.00	29.986 
07:55	65.6	65.6	65.6	96	64.4	0	0	---	0.00	29.986 
08:00	65.8	65.8	65.8	96	64.6	0	0	---	0.00	29.998 
08:05	66.0	66.0	66.0	96	64.8	0	0	---	0.00	29.998 
08:10	66.3	66.3	66.3	96	65.1	0	0	---	0.00	29.998 
08:15	66.4	66.4	66.4	96	65.2	0	0	---	0.00	30.004 
08:20	66.6	66.6	66.6	96	65.4	0	0	---	0.00	30.004 
08:25	67.1	67.1	67.1	96	65.9	0	0	---	0.00	30.004 
08:30	67.8	67.8	67.8	95	66.3	0	0	---	0.00	30.003 
08:35	68.3	68.3	68.3	94	66.5	0	2	270	0.00	30.003 
08:40	68.3	68.3	68.3	90	65.2	1	4	270	0.00	30.003 
08:45	68.9	68.9	68.9	88	65.2	0	1	68	0.00	29.997 
08:50	69.6	69.6	69.6	86	65.2	0	4	68	0.00	29.997 
08:55	69.8	69.8	69.8	83	64.4	1	5	112	0.00	29.997 
09:00	70.3	70.3	70.3	82	64.5	1	5	112	0.00	29.999 
09:05	70.4	70.4	70.4	81	64.3	1	3	112	0.00	29.999 
09:10	70.6	70.6	70.6	77	63.0	1	5	112	0.00	29.999 
09:15	70.9	70.9	70.9	78	63.7	0	2	90	0.00	30.005 
09:20	71.5	71.5	71.5	77	63.9	1	3	68	0.00	30.005 
09:25	71.6	71.6	71.6	74	62.9	1	4	90	0.00	30.005 
09:30	72.1	72.1	72.1	74	63.3	1	3	90	0.00	30.010 
09:35	72.3	72.3	72.3	72	62.8	1	3	90	0.00	30.010 
09:40	72.7	72.7	72.7	71	62.7	1	3	90	0.00	30.010 
09:45	72.8	72.8	72.8	72	63.2	2	3	90	0.00	30.013 
09:50	73.2	73.2	73.2	72	63.6	2	4	90	0.00	30.013 
09:55	73.3	73.3	73.3	71	63.3	1	3	90	0.00	30.013 
10:00	73.5	73.5	73.5	70	63.1	2	4	90	0.00	30.009 
10:05	73.9	73.9	73.9	69	63.1	1	3	112	0.00	30.009 
10:10	73.9	73.9	73.9	69	63.1	2	3	112	0.00	30.009 
10:15	73.9	73.9	73.9	70	63.5	1	3	90	0.00	30.007 
10:20	74.0	74.0	74.0	70	63.6	1	4	90	0.00	30.007 
10:25	73.9	73.9	73.9	69	63.1	1	4	90	0.00	30.007 
10:30	73.9	73.9	73.9	69	63.1	1	4	90	0.00	30.002 
10:35	74.2	74.2	74.2	66	62.1	1	4	90	0.00	30.002 
10:40	74.9	74.9	74.9	68	63.6	1	2	90	0.00	30.002 
10:45	75.8	75.8	77.7	66	63.6	1	4	90	0.00	29.997 
10:50	76.5	76.5	78.3	63	62.9	1	2	90	0.00	29.997 
10:55	77.0	77.0	78.8	65	64.3	1	4	112	0.00	29.997 
11:00	77.6	77.6	79.4	62	63.5	1	3	112	0.00	29.993 
11:05	77.9	77.9	79.7	63	64.3	1	4	112	0.00	29.993 
11:10	78.5	78.5	80.2	60	63.4	0	2	135	0.00	29.993 
11:15	79.0	79.0	80.5	58	62.9	1	3	135	0.00	29.994 
11:20	79.4	79.4	81.1	60	64.3	1	3	90	0.00	29.994 
11:25	79.4	79.4	81.2	61	64.8	1	3	90	0.00	29.994 
11:30	79.6	79.6	81.2	58	63.5	1	3	90	0.00	29.989 
11:35	79.8	79.8	81.3	57	63.2	1	3	90	0.00	29.989 
11:40	79.8	79.8	81.3	57	63.2	0	3	90	0.00	29.989 
11:45	79.6	79.6	81.2	58	63.5	0	3	90	0.00	29.983 
11:50	79.6	79.6	81.3	59	64.0	1	4	90	0.00	29.983 
11:55	79.6	79.6	81.3	59	64.0	1	3	90	0.00	29.983 
12:00	79.8	79.8	81.4	58	63.7	1	6	90	0.00	29.980 
12:05	79.9	79.9	81.2	55	62.3	0	3	90	0.00	29.980 
12:10	80.3	80.3	81.7	56	63.1	1	6	90	0.00	29.980 
12:15	80.3	80.3	81.8	57	63.7	1	4	90	0.00	29.970 
12:20	80.7	80.7	82.4	58	64.5	1	3	90	0.00	29.970 
12:25	81.1	81.1	82.9	58	64.9	1	5	90	0.00	29.970 
12:30	81.1	81.1	82.3	54	62.9	2	4	90	0.00	29.965 
12:35	80.7	80.7	81.8	53	62.0	0	2	90	0.00	29.965 
12:40	81.1	81.1	82.0	51	61.2	1	2	90	0.00	29.965 
12:45	81.4	81.4	82.4	52	62.1	1	4	90	0.00	29.962 
12:50	81.4	81.4	82.3	51	61.5	2	6	90	0.00	29.962 
12:55	81.6	81.6	82.5	51	61.7	1	3	112	0.00	29.962 
13:00	82.0	82.0	83.6	55	64.2	0	3	135	0.00	29.961 
13:05	82.2	82.2	83.0	50	61.7	1	3	135	0.00	29.961 
13:10	82.4	82.4	83.5	52	63.0	1	3	90	0.00	29.961 
13:15	82.4	82.4	83.0	49	61.3	2	4	135	0.00	29.958 
13:20	82.2	82.2	82.7	48	60.5	1	3	90	0.00	29.958 
13:25	82.2	82.2	83.1	51	62.2	2	6	90	0.00	29.958 
13:30	81.8	81.8	83.2	54	63.5	2	6	90	0.00	29.949 
13:35	81.6	81.6	82.1	48	60.0	2	4	90	0.00	29.949 
13:40	82.0	82.0	82.6	49	60.9	2	4	112	0.00	29.949 
13:45	82.4	82.4	83.0	49	61.3	1	3	112	0.00	29.945 
13:50	82.8	82.8	84.2	53	63.9	1	5	90	0.00	29.945 
13:55	83.4	83.4	84.6	51	63.3	1	5	90	0.00	29.945 
14:00	83.8	83.8	84.7	49	62.6	0	3	292	0.00	29.934 
14:05	84.1	84.1	85.0	49	62.8	1	3	45	0.00	29.934 
14:10	84.3	84.3	84.7	46	61.2	1	3	90	0.00	29.934 
14:15	84.1	84.1	85.3	50	63.4	1	4	90	0.00	29.935 
14:20	83.8	83.8	84.3	47	61.4	2	5	90	0.00	29.935 
14:25	83.6	83.6	84.6	50	63.0	2	6	68	0.00	29.935 
14:30	83.6	83.6	84.6	50	63.0	2	5	135	0.00	29.934 
14:35	83.6	83.6	84.6	50	63.0	2	5	90	0.00	29.934 
14:40	83.6	83.6	85.0	52	64.1	2	7	90	0.00	29.934 
14:45	83.6	83.6	84.6	50	63.0	2	7	112	0.00	29.927 
14:50	83.4	83.4	84.8	52	63.9	3	5	90	0.00	29.927 
14:55	82.8	82.8	84.0	52	63.3	2	5	90	0.00	29.927 
15:00	82.6	82.6	84.1	54	64.2	1	3	112	0.00	29.919 
15:05	82.8	82.8	84.8	56	65.5	1	4	112	0.00	29.919 
15:10	83.0	83.0	84.9	55	65.1	1	4	90	0.00	29.919 
15:15	83.0	83.0	84.9	55	65.1	1	4	90	0.00	29.913 
15:20	83.0	83.0	84.9	55	65.1	2	4	90	0.00	29.913 
15:25	83.4	83.4	85.2	54	65.0	1	4	90	0.00	29.913 
15:30	83.6	83.6	85.7	55	65.7	2	7	90	0.00	29.896 
15:35	83.2	83.2	85.1	55	65.3	2	7	90	0.00	29.896 
15:40	83.0	83.0	85.1	56	65.7	1	4	112	0.00	29.896 
15:45	82.4	82.4	84.4	57	65.6	1	4	90	0.00	29.895 
15:50	82.0	82.0	84.4	60	66.7	1	3	112	0.00	29.895 
15:55	82.4	82.4	84.8	59	66.6	0	2	112	0.00	29.895 
16:00	82.6	82.6	84.9	58	66.3	1	3	112	0.00	29.884 
16:05	82.4	82.4	84.6	58	66.1	2	5	112	0.00	29.884 
16:10	82.4	82.4	84.8	59	66.6	1	3	112	0.00	29.884 
16:15	82.4	82.4	84.6	58	66.1	0	2	112	0.00	29.872 
16:20	82.6	82.6	85.3	60	67.3	0	2	135	0.00	29.872 
16:25	82.6	82.6	85.1	59	66.8	1	4	112	0.00	29.872 
16:30	82.6	82.6	84.7	57	65.8	2	5	90	0.00	29.862 
16:35	82.4	82.4	84.8	59	66.6	2	5	90	0.00	29.862 
16:40	82.8	82.8	85.2	58	66.5	1	4	90	0.00	29.862 
16:45	83.2	83.2	85.6	57	66.4	2	4	90	0.00	29.853 
16:50	83.2	83.2	85.6	57	66.4	2	5	90	0.00	29.853 
16:55	83.0	83.0	85.5	58	66.7	2	6	90	0.00	29.853 
17:00	82.8	82.8	85.2	58	66.5	1	3	45	0.00	29.845 
17:05	82.4	82.4	84.6	58	66.1	2	5	90	0.00	29.845 
17:10	82.6	82.6	85.1	59	66.8	1	5	112	0.00	29.845 
17:15	82.6	82.6	85.3	60	67.3	2	4	90	0.00	29.839 
17:20	82.6	82.6	85.3	60	67.3	0	2	90	0.00	29.839 
17:25	82.4	82.4	85.0	60	67.1	1	3	135	0.00	29.839 
17:30	82.2	82.2	84.9	61	67.4	1	4	135	0.00	29.846 
17:35	82.0	82.0	84.6	61	67.2	1	4	135	0.00	29.846 
17:40	81.8	81.8	84.5	62	67.5	1	3	112	0.00	29.846 
17:45	81.6	81.6	84.2	62	67.3	0	2	112	0.00	29.849 
17:50	81.6	81.6	84.2	62	67.3	0	2	112	0.00	29.849 
17:55	81.8	81.8	84.7	63	67.9	1	5	112	0.00	29.849 
18:00	81.8	81.8	84.9	64	68.4	2	4	68	0.00	29.838 
18:05	81.8	81.8	84.9	64	68.4	1	5	90	0.00	29.838 
18:10	81.8	81.8	85.1	65	68.9	1	3	90	0.00	29.838 
18:15	82.0	82.0	85.2	64	68.6	1	4	90	0.00	29.836 
18:20	81.8	81.8	85.5	67	69.7	1	3	90	0.00	29.836 
18:25	81.2	81.2	84.8	69	70.0	0	2	90	0.00	29.836 
18:30	80.9	80.9	85.0	73	71.4	1	4	90	0.01	29.844 
18:35	78.8	78.8	81.7	79	71.7	2	4	90	0.15	29.844 
18:40	77.0	77.0	78.5	82	71.1	0	1	135	0.01	29.844 
18:45	75.6	75.6	75.9	85	70.8	1	3	135	0.12	29.825 
18:50	74.2	74.2	74.2	88	70.4	1	3	135	0.00	29.825 
18:55	73.7	73.7	73.7	90	70.6	0	1	292	0.00	29.825 
19:00	73.5	73.5	73.5	91	70.7	0	1	292	0.00	29.826 
19:05	73.3	73.3	73.3	92	70.8	1	3	292	0.00	29.826 
19:10	73.2	73.2	73.2	92	70.7	0	0	---	0.00	29.826 
19:15	73.3	73.3	73.3	93	71.1	0	1	68	0.00	29.827 
19:20	73.5	73.5	73.5	93	71.3	0	1	68	0.00	29.827 
19:25	73.7	73.7	73.7	94	71.9	0	0	---	0.00	29.827 
19:30	73.9	73.9	73.9	93	71.7	0	1	68	0.00	29.817 
19:35	73.9	73.9	73.9	93	71.7	0	0	---	0.00	29.817 
19:40	73.9	73.9	73.9	93	71.7	0	0	---	0.00	29.817 
19:45	73.9	73.9	73.9	93	71.7	0	0	---	0.00	29.818 
19:50	73.7	73.7	73.7	94	71.9	0	1	68	0.00	29.818 
19:55	73.9	73.9	73.9	94	72.1	0	2	68	0.00	29.818 
20:00	73.9	73.9	73.9	94	72.1	0	3	68	0.00	29.824 
20:05	74.0	74.0	74.0	93	71.8	0	3	68	0.00	29.824 
20:10	74.0	74.0	74.0	93	71.8	1	3	45	0.00	29.824 
20:15	74.0	74.0	74.0	93	71.8	1	3	112	0.00	29.821 
20:20	74.0	74.0	74.0	92	71.5	1	5	135	0.00	29.821 
20:25	74.0	74.0	74.0	92	71.5	1	4	90	0.00	29.821 
20:30	74.0	74.0	74.0	91	71.2	1	2	158	0.00	29.810 
20:35	74.0	74.0	74.0	91	71.2	1	3	90	0.00	29.810 
20:40	74.0	74.0	74.0	90	70.9	1	5	112	0.00	29.810 
20:45	74.0	74.0	74.0	90	70.9	1	4	112	0.00	29.809 
20:50	74.0	74.0	74.0	90	70.9	1	3	90	0.00	29.809 
20:55	74.2	74.2	74.2	89	70.7	1	3	112	0.00	29.809 
21:00	74.0	74.0	74.0	89	70.5	1	3	135	0.00	29.810 
21:05	74.0	74.0	74.0	89	70.5	1	4	112	0.00	29.810 
21:10	74.0	74.0	74.0	89	70.5	1	4	135	0.00	29.810 
21:15	74.0	74.0	74.0	89	70.5	1	3	135	0.00	29.806 
21:20	74.0	74.0	74.0	89	70.5	0	1	112	0.00	29.806 
21:25	73.9	73.9	73.9	89	70.4	1	4	270	0.00	29.806 
21:30	73.9	73.9	73.9	89	70.4	1	4	270	0.00	29.811 
21:35	73.9	73.9	73.9	89	70.4	2	7	270	0.00	29.811 
21:40	73.9	73.9	73.9	89	70.4	2	5	270	0.01	29.811 
21:45	73.7	73.7	73.7	90	70.6	2	7	292	0.00	29.822 
21:50	73.2	73.2	73.2	89	69.8	2	11	270	0.01	29.822 
21:55	73.0	73.0	73.0	90	69.9	2	9	248	0.01	29.822 
22:00	72.5	72.5	72.5	90	69.4	2	6	270	0.00	29.832 
22:05	72.1	72.1	72.1	90	69.0	2	6	270	0.01	29.832 
22:10	71.5	71.5	71.5	90	68.4	2	5	315	0.01	29.832 
22:15	70.6	70.6	70.6	89	67.2	1	7	248	0.00	29.835 
22:20	69.6	69.6	69.6	88	65.9	1	5	0	0.00	29.835 
22:25	68.8	68.8	68.8	88	65.1	1	4	315	0.01	29.835 
22:30	68.4	68.4	68.4	89	65.0	1	5	112	0.00	29.853 
22:35	68.1	68.1	68.1	90	65.0	1	4	270	0.01	29.853 
22:40	67.8	67.8	67.8	91	65.1	1	3	270	0.01	29.853 
22:45	67.4	67.4	67.4	91	64.7	1	3	22	0.02	29.856 
22:50	67.1	67.1	67.1	92	64.7	1	6	338	0.01	29.856 
22:55	66.9	66.9	66.9	92	64.5	1	3	112	0.01	29.856 
23:00	66.8	66.8	66.8	92	64.4	0	3	270	0.01	29.845 
23:05	66.6	66.6	66.6	92	64.2	0	4	270	0.01	29.845 
23:10	66.4	66.4	66.4	92	64.0	1	5	270	0.01	29.845 
23:15	66.4	66.4	66.4	93	64.3	0	3	248	0.02	29.835 
23:20	66.3	66.3	66.3	93	64.2	0	2	292	0.01	29.835 
23:25	66.3	66.3	66.3	93	64.2	0	3	315	0.00	29.835 
23:30	66.1	66.1	66.1	93	64.0	0	1	90	0.01	29.822 
23:35	66.1	66.1	66.1	93	64.0	0	3	90	0.01	29.822 
23:40	66.0	66.0	66.0	93	63.9	0	3	90	0.00	29.822 
23:45	66.0	66.0	66.0	93	63.9	0	2	90	0.00	29.821 
23:50	66.0	66.0	66.0	94	64.2	0	1	90	0.00	29.821 
23:55	66.0	66.0	66.0	94	64.2	0	1	90	0.00	29.821 

CoCoRaHS
IN-AL-39
A2 Web Hosting
Creative Commons License
GoDaddy
search engine by freefind advanced

loaded 2018-11-15 03:04:04 • last modified 2010-11-18 10:43:29
Privacy PolicyDisclaimer
• wx.awcolley.com is powered by PmWiki v.2002016 •
• all content (unless otherwise noted) © 2018 A W Colley